Time;durP1;ratioP1;P1;durP2;ratioP2;P2;SDS_P1;SDS_P2;PMS_P1;PMS_P2;Temp;Humidity;BMP_temperature;BMP_pressure;BME280_temperature;BME280_humidity;BME280_pressure;Samples;Min_cycle;Max_cycle;Signal;HPM_P1;HPM_P2
2022/10/04 00:00:26;;;;;;;23.52;7.18;;;10.30;99.90;;;;;;5011839;28;20060;-62
2022/10/04 00:02:58;;;;;;;21.10;6.50;;;10.30;99.90;;;;;;5032157;28;20056;-62
2022/10/04 00:05:25;;;;;;;19.25;6.97;;;10.30;99.90;;;;;;5029992;28;20021;-61
2022/10/04 00:08:14;;;;;;;20.55;7.22;;;10.30;99.90;;;;;;5014337;28;20365;-62
2022/10/04 00:10:40;;;;;;;20.65;7.35;;;10.30;99.90;;;;;;5029401;28;20021;-62
2022/10/04 00:13:16;;;;;;;17.02;7.45;;;10.30;99.90;;;;;;5032007;28;20087;-62
2022/10/04 00:15:42;;;;;;;20.42;6.95;;;10.30;99.90;;;;;;5029427;28;20030;-61
2022/10/04 00:18:10;;;;;;;22.92;6.13;;;10.30;99.90;;;;;;5032015;28;20048;-62
2022/10/04 00:20:52;;;;;;;16.98;5.90;;;10.30;99.90;;;;;;5031942;28;20026;-62
2022/10/04 00:23:29;;;;;;;18.92;6.78;;;10.30;99.90;;;;;;5031944;28;20013;-62
2022/10/04 00:26:00;;;;;;;30.10;8.60;;;10.30;99.90;;;;;;5031486;28;20056;-62
2022/10/04 00:28:42;;;;;;;22.92;7.32;;;10.30;99.90;;;;;;5031765;28;20034;-61
2022/10/04 00:31:15;;;;;;;11.48;5.40;;;10.30;99.90;;;;;;5013262;28;20053;-61
2022/10/04 00:33:48;;;;;;;18.15;5.95;;;10.30;99.90;;;;;;5012945;28;20022;-61
2022/10/04 00:36:22;;;;;;;17.48;5.90;;;10.20;99.90;;;;;;5012983;28;20029;-61
2022/10/04 00:39:03;;;;;;;14.95;5.00;;;10.30;99.90;;;;;;5012869;28;20701;-61
2022/10/04 00:41:39;;;;;;;15.85;5.35;;;10.30;99.90;;;;;;5012880;28;20057;-60
2022/10/04 00:44:11;;;;;;;16.50;6.57;;;10.30;99.90;;;;;;5013050;28;20018;-60
2022/10/04 00:46:39;;;;;;;17.48;5.25;;;10.30;99.90;;;;;;5012922;28;20026;-60
2022/10/04 00:49:07;;;;;;;13.38;4.35;;;10.30;99.90;;;;;;5012638;28;20066;-62
2022/10/04 00:51:37;;;;;;;19.48;4.63;;;10.40;99.90;;;;;;5012705;28;20030;-61
2022/10/04 00:54:05;;;;;;;16.77;4.65;;;10.40;99.90;;;;;;5012516;28;20040;-61
2022/10/04 00:56:59;;;;;;;17.67;6.43;;;10.40;99.90;;;;;;5012691;28;20536;-60
2022/10/04 00:59:33;;;;;;;26.30;7.22;;;10.40;99.90;;;;;;5013006;28;20095;-63
2022/10/04 01:02:26;;;;;;;15.15;5.32;;;10.40;99.90;;;;;;5012621;28;20481;-63
2022/10/04 01:04:59;;;;;;;12.38;4.22;;;10.40;99.90;;;;;;4994742;28;20030;-62
2022/10/04 01:07:46;;;;;;;18.38;5.35;;;10.50;99.90;;;;;;5011414;28;20026;-63
2022/10/04 01:10:42;;;;;;;13.85;5.57;;;10.40;99.90;;;;;;5012332;28;20114;-60
2022/10/04 01:13:21;;;;;;;14.77;2.92;;;10.40;99.90;;;;;;5007294;28;20030;-61
2022/10/04 01:16:03;;;;;;;9.82;4.78;;;10.50;99.90;;;;;;5012380;28;20386;-61
2022/10/04 01:18:31;;;;;;;14.43;2.80;;;10.50;99.90;;;;;;4994635;28;20026;-61
2022/10/04 01:21:08;;;;;;;13.60;3.35;;;10.50;99.90;;;;;;4994650;28;20026;-60
2022/10/04 01:23:45;;;;;;;13.48;3.00;;;10.40;99.90;;;;;;5012231;28;20057;-62
2022/10/04 01:26:29;;;;;;;13.50;3.13;;;10.50;99.90;;;;;;5011993;28;20061;-60
2022/10/04 01:29:22;;;;;;;14.93;4.30;;;10.50;99.90;;;;;;5012050;28;20037;-62
2022/10/04 01:31:50;;;;;;;13.18;3.40;;;10.50;99.90;;;;;;5011914;28;20477;-62
2022/10/04 01:34:19;;;;;;;20.60;4.55;;;10.40;99.90;;;;;;5011845;28;20038;-61
2022/10/04 01:36:47;;;;;;;21.15;4.75;;;10.40;99.90;;;;;;5012007;28;20406;-60
2022/10/04 01:39:14;;;;;;;19.25;3.95;;;10.50;99.90;;;;;;5011713;28;20033;-62
2022/10/04 01:41:59;;;;;;;15.15;4.05;;;10.40;99.90;;;;;;5011863;28;20045;-61
2022/10/04 01:45:03;;;;;;;17.73;4.63;;;10.40;99.90;;;;;;5011628;28;20026;-61
2022/10/04 01:48:05;;;;;;;14.00;4.18;;;10.40;99.90;;;;;;5008372;28;20101;-61
2022/10/04 01:50:46;;;;;;;17.55;4.35;;;10.40;99.90;;;;;;5006445;28;20072;-61
2022/10/04 01:53:22;;;;;;;19.20;5.07;;;10.40;99.90;;;;;;5011601;28;20120;-62
2022/10/04 01:55:52;;;;;;;17.85;5.18;;;10.40;99.90;;;;;;5011386;28;20030;-63
2022/10/04 01:58:22;;;;;;;14.27;5.18;;;10.40;99.90;;;;;;4993824;28;20080;-60
2022/10/04 02:00:59;;;;;;;17.55;6.47;;;10.40;99.90;;;;;;5011703;28;20042;-60
2022/10/04 02:03:34;;;;;;;18.92;6.82;;;10.40;99.90;;;;;;5011343;28;20536;-62
2022/10/04 02:06:04;;;;;;;23.95;5.30;;;10.30;99.90;;;;;;5011368;28;20109;-61
2022/10/04 02:08:34;;;;;;;20.88;5.50;;;10.30;99.90;;;;;;5011411;28;20046;-61
2022/10/04 02:11:02;;;;;;;18.75;6.15;;;10.30;99.90;;;;;;5011225;28;20026;-61
2022/10/04 02:13:34;;;;;;;20.05;5.97;;;10.30;99.90;;;;;;5011266;28;20036;-61
2022/10/04 02:16:01;;;;;;;23.15;5.20;;;10.30;99.90;;;;;;5010996;28;20030;-61
2022/10/04 02:18:29;;;;;;;13.57;5.18;;;10.30;99.90;;;;;;5010927;28;20038;-62
2022/10/04 02:20:55;;;;;;;16.10;5.10;;;10.30;99.90;;;;;;5011161;28;20030;-61
2022/10/04 02:23:23;;;;;;;27.52;9.68;;;10.40;99.90;;;;;;5011012;28;20062;-63
2022/10/04 02:25:48;;;;;;;19.80;6.47;;;10.40;99.90;;;;;;5010683;28;20045;-64
2022/10/04 02:28:17;;;;;;;15.70;6.97;;;10.30;99.90;;;;;;4993445;28;20680;-61
2022/10/04 02:32:56;;;;;;;19.02;5.70;;;10.30;99.90;;;;;;5010945;28;20116;-63
2022/10/04 02:33:39;;;;;;;21.85;5.97;;;10.30;99.90;;;;;;5010741;28;20064;-61
2022/10/04 02:36:06;;;;;;;19.27;5.18;;;10.30;99.90;;;;;;5010626;28;20398;-60
2022/10/04 02:38:36;;;;;;;26.73;7.60;;;10.30;99.90;;;;;;5010702;28;20061;-62
2022/10/04 02:41:08;;;;;;;19.73;5.07;;;10.30;99.90;;;;;;5010592;28;20080;-61
2022/10/04 02:43:54;;;;;;;24.10;6.30;;;10.30;99.90;;;;;;5010511;28;20029;-62
2022/10/04 02:46:44;;;;;;;23.88;6.00;;;10.30;99.90;;;;;;5010599;28;20041;-61
2022/10/04 02:49:15;;;;;;;23.65;5.85;;;10.30;99.90;;;;;;5010368;28;20034;-62
2022/10/04 02:51:58;;;;;;;23.85;6.25;;;10.30;99.90;;;;;;5010537;28;20029;-62
2022/10/04 02:54:37;;;;;;;25.23;6.10;;;10.30;99.90;;;;;;5010530;28;20026;-62
2022/10/04 02:57:03;;;;;;;32.97;7.47;;;10.30;99.90;;;;;;5010386;28;20806;-63
2022/10/04 02:59:30;;;;;;;25.70;6.50;;;10.30;99.90;;;;;;5010441;28;20025;-61
2022/10/04 03:02:00;;;;;;;26.92;7.43;;;10.30;99.90;;;;;;5010226;28;20048;-60
2022/10/04 03:04:37;;;;;;;27.48;9.45;;;10.30;99.90;;;;;;5010597;28;20492;-61
2022/10/04 03:07:07;;;;;;;41.70;20.73;;;10.30;99.90;;;;;;5010178;28;20112;-60
2022/10/04 03:09:35;;;;;;;28.70;12.23;;;10.30;99.90;;;;;;5019766;28;20060;-63
2022/10/04 03:12:03;;;;;;;22.85;7.25;;;10.30;99.90;;;;;;5030201;28;20021;-60
2022/10/04 03:14:30;;;;;;;20.08;5.72;;;10.30;99.90;;;;;;5030378;28;20044;-60
2022/10/04 03:17:00;;;;;;;;;;;10.30;99.90;;;;;;5030655;28;20032;-60
2022/10/04 03:19:28;;;;;;;21.45;5.75;;;10.30;99.90;;;;;;5030158;28;19916;-63
2022/10/04 03:21:58;;;;;;;29.25;7.18;;;10.30;99.90;;;;;;5030043;28;20222;-60
2022/10/04 03:24:41;;;;;;;17.15;5.30;;;10.30;99.90;;;;;;5029843;28;20033;-62
2022/10/04 03:27:08;;;;;;;28.27;6.05;;;10.30;99.90;;;;;;5012065;28;20026;-60
2022/10/04 03:29:38;;;;;;;26.90;7.00;;;10.30;99.90;;;;;;5029512;28;20049;-61
2022/10/04 03:32:04;;;;;;;20.17;6.10;;;10.30;99.90;;;;;;5012032;28;20030;-61
2022/10/04 03:34:38;;;;;;;21.52;5.03;;;10.30;99.90;;;;;;5029811;28;20544;-62
2022/10/04 03:37:15;;;;;;;14.88;4.35;;;10.30;99.90;;;;;;5029694;28;20136;-61
2022/10/04 03:39:46;;;;;;;17.00;5.07;;;10.30;99.90;;;;;;5029781;28;20126;-61
2022/10/04 03:42:21;;;;;;;16.08;5.45;;;10.30;99.90;;;;;;5011947;28;20030;-60
2022/10/04 03:44:50;;;;;;;18.95;6.05;;;10.30;99.90;;;;;;5012005;28;20481;-60
2022/10/04 03:47:26;;;;;;;16.15;5.40;;;10.30;99.90;;;;;;5011963;28;20109;-61
2022/10/04 03:49:54;;;;;;;16.38;5.47;;;10.30;99.90;;;;;;5029634;28;20033;-62
2022/10/04 03:52:22;;;;;;;21.02;5.55;;;10.20;99.90;;;;;;5029756;28;20044;-62
2022/10/04 03:54:54;;;;;;;14.85;5.13;;;10.30;99.90;;;;;;5029709;28;20155;-65
2022/10/04 03:57:20;;;;;;;16.52;5.30;;;10.30;99.90;;;;;;5029597;28;20485;-61
2022/10/04 03:59:46;;;;;;;17.73;5.63;;;10.30;99.90;;;;;;5029711;28;20044;-63
2022/10/04 04:02:38;;;;;;;17.77;4.63;;;10.30;99.90;;;;;;5029448;28;20022;-64
2022/10/04 04:05:17;;;;;;;20.20;4.65;;;10.30;99.90;;;;;;5029520;28;20029;-61
2022/10/04 04:08:32;;;;;;;14.10;4.43;;;10.40;99.90;;;;;;5029489;28;20416;-61
2022/10/04 04:11:01;;;;;;;18.80;5.13;;;10.30;99.90;;;;;;5025564;28;20037;-60
2022/10/04 04:13:36;;;;;;;20.23;4.95;;;10.30;99.90;;;;;;5029502;28;20021;-61
2022/10/04 04:16:04;;;;;;;23.45;5.60;;;10.30;99.90;;;;;;5029650;28;20021;-63
2022/10/04 04:18:36;;;;;;;15.05;4.45;;;10.30;99.90;;;;;;5029588;28;20025;-59
2022/10/04 04:21:05;;;;;;;12.27;5.03;;;10.20;99.90;;;;;;5029354;28;20025;-61
2022/10/04 04:23:43;;;;;;;15.45;5.07;;;10.30;99.90;;;;;;5029344;28;20025;-61
2022/10/04 04:26:11;;;;;;;15.35;4.60;;;10.20;99.90;;;;;;5029311;28;20038;-62
2022/10/04 04:29:02;;;;;;;15.80;4.50;;;10.10;99.90;;;;;;5029158;28;20040;-61
2022/10/04 04:31:34;;;;;;;15.27;4.68;;;10.10;99.90;;;;;;5029290;28;20097;-61
2022/10/04 04:34:05;;;;;;;14.75;4.90;;;10.10;99.90;;;;;;5029319;28;20210;-60
2022/10/04 04:36:39;;;;;;;14.20;5.18;;;10.10;99.90;;;;;;5029298;28;20183;-62
2022/10/04 04:39:33;;;;;;;15.27;4.60;;;10.10;99.90;;;;;;5029039;28;20029;-61
2022/10/04 04:42:00;;;;;;;13.13;3.88;;;10.00;99.90;;;;;;5031044;28;20397;-61
2022/10/04 04:44:27;;;;;;;13.90;4.50;;;10.00;99.90;;;;;;5032978;28;20029;-61
2022/10/04 04:46:59;;;;;;;19.00;4.78;;;10.00;99.90;;;;;;5015025;28;20468;-62
2022/10/04 04:49:28;;;;;;;14.90;4.15;;;9.90;99.90;;;;;;5032830;28;20041;-61
2022/10/04 04:51:54;;;;;;;15.98;4.10;;;9.90;99.90;;;;;;5032981;28;20376;-61
2022/10/04 04:54:24;;;;;;;11.90;4.37;;;9.80;99.90;;;;;;5014835;28;20026;-60
2022/10/04 04:56:52;;;;;;;14.75;4.70;;;9.80;99.90;;;;;;5032774;28;20264;-61
2022/10/04 04:59:19;;;;;;;14.80;4.97;;;9.80;99.90;;;;;;5032801;28;20024;-63
2022/10/04 05:01:47;;;;;;;19.55;4.60;;;9.80;99.90;;;;;;5032596;28;20018;-59
2022/10/04 05:04:12;;;;;;;;;;;9.70;99.90;;;;;;5015198;28;20032;-60
2022/10/04 05:06:41;;;;;;;19.58;4.75;;;9.70;99.90;;;;;;5032420;28;19905;-63
2022/10/04 05:09:24;;;;;;;13.48;4.32;;;9.70;99.90;;;;;;5032479;28;20052;-61
2022/10/04 05:11:52;;;;;;;13.25;4.50;;;9.70;99.90;;;;;;5032481;28;20032;-62
2022/10/04 05:14:18;;;;;;;13.27;5.10;;;9.60;99.90;;;;;;5032512;28;20033;-60
2022/10/04 05:16:49;;;;;;;14.88;5.65;;;9.60;99.90;;;;;;5032403;28;20083;-61
2022/10/04 05:19:29;;;;;;;17.27;5.25;;;9.60;99.90;;;;;;5032039;28;20108;-61
2022/10/04 05:21:57;;;;;;;22.77;4.78;;;9.50;99.90;;;;;;5032433;28;20036;-62
2022/10/04 05:24:25;;;;;;;17.65;4.57;;;9.50;99.90;;;;;;5031839;28;20107;-60
2022/10/04 05:27:03;;;;;;;14.80;5.88;;;9.50;99.90;;;;;;5032054;28;20041;-60
2022/10/04 05:29:36;;;;;;;16.75;4.53;;;9.50;99.90;;;;;;5014232;28;20029;-60
2022/10/04 05:32:06;;;;;;;12.27;4.18;;;9.50;99.90;;;;;;5032094;28;20030;-61
2022/10/04 05:34:38;;;;;;;17.27;4.53;;;9.60;99.90;;;;;;5032313;28;20033;-61
2022/10/04 05:37:05;;;;;;;12.07;4.57;;;9.60;99.90;;;;;;5031964;28;20096;-60
2022/10/04 05:39:51;;;;;;;18.47;6.13;;;9.60;99.90;;;;;;5032075;28;20029;-61
2022/10/04 05:42:25;;;;;;;16.60;5.55;;;9.70;99.90;;;;;;5031715;28;20452;-60
2022/10/04 05:44:54;;;;;;;15.45;5.82;;;9.70;99.90;;;;;;5031753;28;20029;-61
2022/10/04 05:47:26;;;;;;;17.77;6.05;;;9.80;99.90;;;;;;5031586;28;20037;-61
2022/10/04 05:49:54;;;;;;;15.73;6.03;;;9.80;99.90;;;;;;5031724;28;20069;-61
2022/10/04 05:52:29;;;;;;;17.70;6.32;;;9.90;99.90;;;;;;5031658;28;20052;-61
2022/10/04 05:55:14;;;;;;;18.13;7.45;;;10.00;99.90;;;;;;5031261;28;20025;-61
2022/10/04 05:57:58;;;;;;;16.02;6.45;;;10.10;99.90;;;;;;5031633;28;20032;-62
2022/10/04 06:00:50;;;;;;;20.25;5.78;;;10.20;99.90;;;;;;5031694;28;20638;-63
2022/10/04 06:03:33;;;;;;;16.77;6.15;;;10.30;99.90;;;;;;5031466;28;20063;-60
2022/10/04 06:06:15;;;;;;;14.77;5.60;;;10.40;99.90;;;;;;5031239;28;20035;-61
2022/10/04 06:09:01;;;;;;;14.40;5.28;;;10.40;99.90;;;;;;5031443;28;20125;-60
2022/10/04 06:11:47;;;;;;;11.63;4.15;;;10.50;99.90;;;;;;5031387;28;20076;-61
2022/10/04 06:14:18;;;;;;;12.70;4.80;;;10.50;99.90;;;;;;5002883;28;20033;-60
2022/10/04 06:16:50;;;;;;;16.05;4.50;;;10.60;99.90;;;;;;5031374;28;20029;-63
2022/10/04 06:19:35;;;;;;;18.52;5.28;;;10.60;99.90;;;;;;5013490;28;20112;-59
2022/10/04 06:22:21;;;;;;;8.60;3.28;;;10.60;99.90;;;;;;5031271;28;20544;-62
2022/10/04 06:25:03;;;;;;;15.48;4.47;;;10.60;99.90;;;;;;5030808;28;20481;-60
2022/10/04 06:27:39;;;;;;;13.52;4.68;;;10.70;99.90;;;;;;5030964;28;20802;-61
2022/10/04 06:30:14;;;;;;;15.95;4.15;;;10.70;99.90;;;;;;5013033;28;20123;-61
2022/10/04 06:33:01;;;;;;;17.23;4.70;;;10.70;99.90;;;;;;5031199;28;20026;-61
2022/10/04 06:35:50;;;;;;;12.90;4.78;;;10.70;99.90;;;;;;5031124;28;20024;-60
2022/10/04 06:38:45;;;;;;;15.85;4.85;;;10.70;99.90;;;;;;5030879;28;20227;-62
2022/10/04 06:41:11;;;;;;;21.85;6.68;;;10.70;99.90;;;;;;5030975;28;20485;-61
2022/10/04 06:43:42;;;;;;;19.25;5.45;;;10.70;99.90;;;;;;5030793;28;20063;-62
2022/10/04 06:46:30;;;;;;;16.02;4.82;;;10.70;99.90;;;;;;5030920;28;20029;-61
2022/10/04 06:49:23;;;;;;;21.10;5.22;;;10.80;99.90;;;;;;5030777;28;20388;-61
2022/10/04 06:52:10;;;;;;;21.65;5.72;;;10.80;99.90;;;;;;5030783;28;20028;-60
2022/10/04 06:54:51;;;;;;;21.55;6.57;;;10.80;99.90;;;;;;5030595;28;20100;-59
2022/10/04 06:57:30;;;;;;;18.00;5.28;;;10.90;99.90;;;;;;5030540;28;20059;-61
2022/10/04 07:00:12;;;;;;;21.27;4.65;;;10.90;99.90;;;;;;5030667;28;20013;-61
2022/10/04 07:02:52;;;;;;;11.38;4.55;;;10.90;99.90;;;;;;5012579;28;20025;-61
2022/10/04 07:05:51;;;;;;;17.08;4.18;;;11.00;99.90;;;;;;5029683;28;20079;-61
2022/10/04 07:08:47;;;;;;;20.95;5.35;;;11.00;99.90;;;;;;5029785;28;20064;-63
2022/10/04 07:11:24;;;;;;;13.05;4.18;;;11.00;99.90;;;;;;5001497;28;20120;-63
2022/10/04 07:13:57;;;;;;;19.63;4.70;;;11.00;99.90;;;;;;5026421;28;20030;-63
2022/10/04 07:16:38;;;;;;;17.02;4.28;;;11.10;99.90;;;;;;5011789;28;20049;-63
2022/10/04 07:19:25;;;;;;;12.50;4.65;;;11.30;99.90;;;;;;5030238;28;20045;-62
2022/10/04 07:22:05;;;;;;;18.90;4.20;;;11.50;99.90;;;;;;5029979;28;20032;-62
2022/10/04 07:24:44;;;;;;;19.63;5.63;;;11.60;99.90;;;;;;5029454;28;20512;-63
2022/10/04 07:27:16;;;;;;;9.48;3.08;;;11.70;99.90;;;;;;5013155;28;20029;-62
2022/10/04 07:29:47;;;;;;;14.07;3.30;;;11.70;99.90;;;;;;5011978;28;20717;-64
2022/10/04 07:32:37;;;;;;;16.33;4.32;;;11.70;99.90;;;;;;5030139;28;20048;-63
2022/10/04 07:35:06;;;;;;;15.23;3.67;;;11.80;99.90;;;;;;5018344;28;20037;-63
2022/10/04 07:37:45;;;;;;;10.00;3.30;;;11.90;99.90;;;;;;5030098;28;20029;-63
2022/10/04 07:40:32;;;;;;;13.80;3.40;;;11.90;99.90;;;;;;5029970;28;20021;-64
2022/10/04 07:43:21;;;;;;;14.85;3.55;;;11.90;99.90;;;;;;5029520;28;20030;-66
2022/10/04 07:45:48;;;;;;;14.00;3.55;;;11.90;99.90;;;;;;5028856;28;20083;-64
2022/10/04 07:48:18;;;;;;;;;;;11.80;99.90;;;;;;5029564;28;20524;-63
2022/10/04 07:50:54;;;;;;;10.18;2.47;;;11.80;99.90;;;;;;5028408;28;19940;-61
2022/10/04 07:53:43;;;;;;;16.92;3.25;;;11.80;99.90;;;;;;5028300;28;20485;-62
2022/10/04 07:56:25;;;;;;;8.10;2.75;;;11.80;99.90;;;;;;5009805;28;20114;-62
2022/10/04 07:59:11;;;;;;;10.55;3.05;;;11.70;99.90;;;;;;5028173;28;20493;-63
2022/10/04 08:02:05;;;;;;;7.82;2.75;;;11.70;99.90;;;;;;4991766;28;20474;-60
2022/10/04 08:05:02;;;;;;;11.18;3.00;;;11.60;99.90;;;;;;5009975;28;20393;-63
2022/10/04 08:07:55;;;;;;;12.60;2.30;;;11.60;99.90;;;;;;5028324;28;20108;-62
2022/10/04 08:10:36;;;;;;;11.07;2.75;;;11.60;99.90;;;;;;5029057;28;20040;-61
2022/10/04 08:13:17;;;;;;;13.93;3.22;;;11.60;99.90;;;;;;5028066;28;20028;-62
2022/10/04 08:15:43;;;;;;;10.18;2.88;;;11.80;99.90;;;;;;5028995;28;20036;-62
2022/10/04 08:18:18;;;;;;;12.88;4.18;;;11.80;99.90;;;;;;5032939;28;20021;-61
2022/10/04 08:20:57;;;;;;;12.82;3.38;;;11.80;99.90;;;;;;5033539;28;20024;-61
2022/10/04 08:23:41;;;;;;;9.48;2.67;;;11.60;99.90;;;;;;5015242;28;20392;-62
2022/10/04 08:26:39;;;;;;;10.45;3.05;;;11.70;99.90;;;;;;5032646;28;20046;-61
2022/10/04 08:29:43;;;;;;;13.27;3.17;;;11.90;99.90;;;;;;5031502;28;20041;-61
2022/10/04 08:32:22;;;;;;;12.77;3.58;;;12.00;99.90;;;;;;5031890;28;20102;-62
2022/10/04 08:35:03;;;;;;;8.57;2.78;;;12.00;99.90;;;;;;5031768;28;20807;-61
2022/10/04 08:37:59;;;;;;;9.43;2.20;;;12.00;99.90;;;;;;5031951;28;20489;-62
2022/10/04 08:40:46;;;;;;;10.15;3.15;;;12.00;99.90;;;;;;5042827;28;20035;-62
2022/10/04 08:43:30;;;;;;;7.43;2.30;;;12.10;99.90;;;;;;5052647;28;20104;-60
2022/10/04 08:46:25;;;;;;;9.75;2.55;;;12.10;99.90;;;;;;5036310;28;20384;-60
2022/10/04 08:49:30;;;;;;;12.07;2.33;;;12.10;99.90;;;;;;4991183;28;20171;-60
2022/10/04 08:52:05;;;;;;;6.20;1.80;;;12.20;99.90;;;;;;5031701;28;20043;-61
2022/10/04 08:54:49;;;;;;;5.07;1.58;;;12.20;99.90;;;;;;5031495;28;20049;-60
2022/10/04 08:57:49;;;;;;;9.50;1.83;;;12.20;99.90;;;;;;5030998;28;20115;-62
2022/10/04 09:00:25;;;;;;;10.23;2.30;;;12.30;99.90;;;;;;5030321;28;20040;-61
2022/10/04 09:03:12;;;;;;;7.70;3.13;;;12.40;99.90;;;;;;5026462;28;20116;-61
2022/10/04 09:05:49;;;;;;;5.05;1.63;;;12.40;99.90;;;;;;5031383;28;20056;-60
2022/10/04 09:08:42;;;;;;;8.85;2.20;;;12.60;99.90;;;;;;5029305;28;20041;-60
2022/10/04 09:11:40;;;;;;;10.45;2.10;;;12.50;99.90;;;;;;5029748;28;20029;-61
2022/10/04 09:14:37;;;;;;;16.13;2.35;;;12.60;99.90;;;;;;5011063;28;20068;-60
2022/10/04 09:17:18;;;;;;;8.25;2.60;;;12.60;99.90;;;;;;5012329;28;20424;-61
2022/10/04 09:19:52;;;;;;;8.15;2.22;;;12.70;99.90;;;;;;5028262;28;20101;-62
2022/10/04 09:22:55;;;;;;;8.73;2.15;;;12.70;99.90;;;;;;5029823;28;20064;-61
2022/10/04 09:25:29;;;;;;;7.32;2.70;;;13.20;99.90;;;;;;5029911;28;20048;-59
2022/10/04 09:28:00;;;;;;;10.48;2.90;;;13.40;99.90;;;;;;5029007;28;20084;-60
2022/10/04 09:30:58;;;;;;;8.95;3.00;;;13.60;99.90;;;;;;5029339;28;20107;-59
2022/10/04 09:33:48;;;;;;;7.75;2.10;;;13.70;99.90;;;;;;5003274;28;20156;-63
2022/10/04 09:36:39;;;;;;;11.15;2.45;;;13.50;99.90;;;;;;5029801;28;20033;-60
2022/10/04 09:39:13;;;;;;;8.98;2.15;;;13.50;99.90;;;;;;5001004;28;20041;-62
2022/10/04 09:42:17;;;;;;;9.55;2.53;;;13.90;99.90;;;;;;5030173;28;20018;-61
2022/10/04 09:44:55;;;;;;;10.63;2.00;;;14.20;99.90;;;;;;4947775;28;20040;-62
2022/10/04 09:47:30;;;;;;;10.05;2.15;;;14.60;99.90;;;;;;5030399;28;20026;-63
2022/10/04 09:50:13;;;;;;;9.85;2.03;;;15.70;99.90;;;;;;5029465;28;20556;-62
2022/10/04 09:52:57;;;;;;;10.65;1.65;;;16.60;99.90;;;;;;5012372;28;20029;-63
2022/10/04 09:55:50;;;;;;;6.72;1.92;;;17.10;99.90;;;;;;5030422;28;20025;-63
2022/10/04 09:58:35;;;;;;;7.47;1.85;;;17.50;99.90;;;;;;5011460;28;20087;-61
2022/10/04 10:01:09;;;;;;;5.03;1.63;;;17.10;99.90;;;;;;5029521;28;20136;-63
2022/10/04 10:03:57;;;;;;;8.80;2.20;;;16.40;99.90;;;;;;5030384;28;20049;-62
2022/10/04 10:06:41;;;;;;;5.00;2.07;;;16.20;99.90;;;;;;5028394;28;20033;-62
2022/10/04 10:15:54;;;;;;;8.57;2.92;;;15.10;99.90;;;;;;5028017;28;20536;-61
2022/10/04 10:18:29;;;;;;;12.95;2.42;;;15.20;99.90;;;;;;5022106;28;20029;-62
2022/10/04 10:20:57;;;;;;;5.82;1.77;;;15.40;99.90;;;;;;5029761;28;20029;-60
2022/10/04 10:23:44;;;;;;;7.93;2.22;;;15.70;99.90;;;;;;5029493;28;20022;-62
2022/10/04 10:26:26;;;;;;;5.90;1.45;;;16.00;99.90;;;;;;5029280;28;20117;-62
2022/10/04 10:29:13;;;;;;;7.05;1.63;;;15.90;99.90;;;;;;5029312;28;20120;-61
2022/10/04 10:32:06;;;;;;;7.78;2.05;;;15.80;99.90;;;;;;5011337;28;20467;-61
2022/10/04 10:34:44;;;;;;;6.28;1.67;;;16.30;99.90;;;;;;5027949;28;20551;-60
2022/10/04 10:37:18;;;;;;;8.38;1.67;;;17.00;99.90;;;;;;5031731;28;20487;-61
2022/10/04 10:40:18;;;;;;;4.57;1.33;;;17.70;99.90;;;;;;5030380;28;20025;-61
2022/10/04 10:42:53;;;;;;;;;;;18.00;99.90;;;;;;5034643;28;20025;-61
2022/10/04 10:45:55;;;;;;;5.78;1.80;;;17.30;97.40;;;;;;5040737;28;19912;-62
2022/10/04 10:48:26;;;;;;;7.18;1.90;;;16.60;97.90;;;;;;5016397;28;20362;-61
2022/10/04 10:51:16;;;;;;;5.28;1.60;;;16.30;98.70;;;;;;5038873;28;20039;-61
2022/10/04 10:54:00;;;;;;;5.13;1.65;;;16.10;99.90;;;;;;5031445;28;20099;-61
2022/10/04 10:56:25;;;;;;;9.95;1.67;;;16.10;99.90;;;;;;5009992;28;20379;-61
2022/10/04 10:59:26;;;;;;;5.90;1.77;;;16.50;99.90;;;;;;5036011;28;20033;-62
2022/10/04 11:01:55;;;;;;;7.10;1.58;;;16.90;99.90;;;;;;4978527;28;20031;-60
2022/10/04 11:04:33;;;;;;;5.57;1.30;;;17.00;98.10;;;;;;5023617;28;20040;-61
2022/10/04 11:07:15;;;;;;;8.48;1.92;;;17.30;98.80;;;;;;5033863;28;20511;-61
2022/10/04 11:10:18;;;;;;;5.93;1.60;;;17.20;99.20;;;;;;5027756;28;20045;-62
2022/10/04 11:13:03;;;;;;;7.32;2.00;;;17.20;99.50;;;;;;5028289;28;20025;-61
2022/10/04 11:15:48;;;;;;;3.45;1.25;;;16.70;98.90;;;;;;5031851;28;20051;-61
2022/10/04 11:18:39;;;;;;;4.43;1.42;;;16.30;97.70;;;;;;5030740;28;20508;-60
2022/10/04 11:21:30;;;;;;;6.78;1.50;;;16.10;98.00;;;;;;5033914;28;20033;-62
2022/10/04 11:24:33;;;;;;;8.65;2.22;;;16.40;97.40;;;;;;5026847;28;20555;-61
2022/10/04 11:27:14;;;;;;;9.30;2.17;;;17.20;97.00;;;;;;5028286;28;20029;-62
2022/10/04 11:29:43;;;;;;;10.63;2.95;;;17.70;97.10;;;;;;5027640;28;20069;-62
2022/10/04 11:32:34;;;;;;;9.15;1.67;;;18.50;97.60;;;;;;5027694;28;20025;-63
2022/10/04 11:35:10;;;;;;;10.13;1.60;;;18.50;90.10;;;;;;5010438;28;20030;-61
2022/10/04 11:38:05;;;;;;;6.20;1.30;;;19.00;91.10;;;;;;5032809;28;20029;-63
2022/10/04 11:40:57;;;;;;;6.47;1.60;;;18.80;88.20;;;;;;5034845;28;20129;-60
2022/10/04 11:43:45;;;;;;;10.70;1.58;;;18.60;90.20;;;;;;5009818;28;20378;-61
2022/10/04 11:46:34;;;;;;;6.13;1.67;;;18.70;89.50;;;;;;5027868;28;20025;-62
2022/10/04 11:49:28;;;;;;;5.93;1.60;;;19.10;90.90;;;;;;5028219;28;20049;-61
2022/10/04 11:51:59;;;;;;;7.45;1.88;;;19.30;90.80;;;;;;5026323;28;20052;-61
2022/10/04 11:54:51;;;;;;;13.98;2.72;;;19.30;87.80;;;;;;5027810;28;20028;-62
2022/10/04 11:57:44;;;;;;;5.70;1.25;;;19.40;87.70;;;;;;5028311;28;20034;-62
2022/10/04 12:01:05;;;;;;;5.97;1.40;;;19.30;88.20;;;;;;5026943;28;20024;-61
2022/10/04 12:04:03;;;;;;;6.25;1.42;;;19.20;84.70;;;;;;4971699;28;20896;-61
2022/10/04 12:06:56;;;;;;;5.88;1.55;;;19.00;86.10;;;;;;5026615;28;20385;-61
2022/10/04 12:09:42;;;;;;;6.78;1.70;;;20.20;85.30;;;;;;5026288;28;20131;-60
2022/10/04 12:12:37;;;;;;;10.70;1.63;;;21.40;77.50;;;;;;5026663;28;20489;-61
2022/10/04 12:15:37;;;;;;;7.50;1.70;;;20.30;78.70;;;;;;5027734;28;20132;-60
2022/10/04 12:18:05;;;;;;;8.13;3.30;;;20.20;80.50;;;;;;5027560;28;20026;-60
2022/10/04 12:20:40;;;;;;;;;;;19.60;84.70;;;;;;5010828;28;20033;-61
2022/10/04 12:23:43;;;;;;;8.20;2.20;;;19.30;84.90;;;;;;5025329;28;20651;-61
2022/10/04 12:26:31;;;;;;;8.00;2.00;;;19.10;82.20;;;;;;5025292;28;20719;-63
2022/10/04 12:29:18;;;;;;;8.95;3.65;;;19.00;86.10;;;;;;5027648;28;20493;-62
2022/10/04 12:31:58;;;;;;;10.20;2.40;;;18.90;85.10;;;;;;5027857;28;20523;-62
2022/10/04 12:34:47;;;;;;;8.02;1.83;;;19.10;87.60;;;;;;5027317;28;20088;-63
2022/10/04 12:37:15;;;;;;;7.03;1.83;;;19.20;83.90;;;;;;5026685;28;20555;-63
2022/10/04 12:40:07;;;;;;;3.90;1.23;;;19.10;86.10;;;;;;5026683;28;20045;-62
2022/10/04 12:42:52;;;;;;;11.18;2.80;;;19.20;85.20;;;;;;5028221;28;20026;-62
2022/10/04 12:45:39;;;;;;;3.88;1.30;;;19.10;87.50;;;;;;5029211;28;20014;-62
2022/10/04 12:48:22;;;;;;;8.70;2.10;;;18.80;85.30;;;;;;5041119;28;20033;-62
2022/10/04 12:51:24;;;;;;;6.97;1.70;;;18.40;84.20;;;;;;5044691;28;20798;-61
2022/10/04 12:54:08;;;;;;;8.80;2.42;;;17.90;86.00;;;;;;5029193;28;20056;-61
2022/10/04 12:56:52;;;;;;;4.07;1.30;;;17.70;86.40;;;;;;5029131;28;20028;-62
2022/10/04 12:59:47;;;;;;;6.25;1.67;;;17.90;90.20;;;;;;5017874;28;20030;-61
2022/10/04 13:02:43;;;;;;;5.65;1.85;;;18.20;90.70;;;;;;4990255;28;20540;-61
2022/10/04 13:05:48;;;;;;;7.70;2.58;;;18.50;90.80;;;;;;5012919;28;20045;-63
2022/10/04 13:08:42;;;;;;;9.27;2.17;;;18.60;88.50;;;;;;5034740;28;20038;-62
2022/10/04 13:11:26;;;;;;;7.82;2.42;;;18.70;85.60;;;;;;5012697;28;20053;-61
2022/10/04 13:13:59;;;;;;;5.60;1.65;;;18.90;84.90;;;;;;4995010;28;20061;-61
2022/10/04 13:16:56;;;;;;;6.68;1.67;;;19.00;83.00;;;;;;4996984;28;20037;-62
2022/10/04 13:19:37;;;;;;;5.97;1.70;;;19.20;83.10;;;;;;5024961;28;20152;-64
2022/10/04 13:22:12;;;;;;;15.48;2.83;;;19.10;82.60;;;;;;5032280;28;20116;-61
2022/10/04 13:24:56;;;;;;;6.78;2.03;;;18.80;83.50;;;;;;5014380;28;20033;-64
2022/10/04 13:27:40;;;;;;;5.90;1.90;;;18.90;84.40;;;;;;5038327;28;20480;-61
2022/10/04 13:30:26;;;;;;;4.90;1.48;;;19.20;86.70;;;;;;5052091;28;20041;-63
2022/10/04 13:33:10;;;;;;;10.90;3.40;;;19.30;83.20;;;;;;5039323;28;20384;-61
2022/10/04 13:35:53;;;;;;;15.25;7.47;;;19.20;83.50;;;;;;5030964;28;20029;-59
2022/10/04 13:38:44;;;;;;;11.25;3.92;;;19.00;85.90;;;;;;5031723;28;20382;-61
2022/10/04 13:41:27;;;;;;;6.32;1.40;;;19.10;88.60;;;;;;5030389;28;20102;-60
2022/10/04 13:44:20;;;;;;;4.55;1.50;;;19.20;85.90;;;;;;5030205;28;20076;-58
2022/10/04 13:46:52;;;;;;;5.57;1.65;;;19.30;85.40;;;;;;5024591;28;20033;-60
2022/10/04 13:49:20;;;;;;;8.25;1.55;;;19.30;84.80;;;;;;5030669;28;20488;-62
2022/10/04 13:51:46;;;;;;;5.88;1.85;;;19.40;89.90;;;;;;5020509;28;20100;-60
2022/10/04 13:57:21;;;;;;;7.95;2.95;;;19.60;85.00;;;;;;5030260;28;20060;-62